sensor_id;sensor_type;location;lat;lon;timestamp;P1;durP1;ratioP1;P2;durP2;ratioP2
60088;SDS011;45961;53.574;55.878;2023-05-07T08:59:03;0.60;;;0.50;;
60088;SDS011;45961;53.574;55.878;2023-05-07T09:00:05;0.60;;;0.60;;
60088;SDS011;45961;53.574;55.878;2023-05-07T09:01:09;1.13;;;0.80;;
60088;SDS011;45961;53.574;55.878;2023-05-07T09:02:14;0.90;;;0.70;;
60088;SDS011;45961;53.574;55.878;2023-05-07T09:03:16;1.70;;;1.20;;
60088;SDS011;45961;53.574;55.878;2023-05-07T09:04:21;1.00;;;0.85;;
60088;SDS011;45961;53.574;55.878;2023-05-07T09:05:22;1.27;;;0.90;;
60088;SDS011;45961;53.574;55.878;2023-05-07T09:06:24;1.45;;;1.35;;
60088;SDS011;45961;53.574;55.878;2023-05-07T09:07:26;0.95;;;0.85;;
60088;SDS011;45961;53.574;55.878;2023-05-07T09:09:32;0.82;;;0.75;;
60088;SDS011;45961;53.574;55.878;2023-05-07T09:10:34;1.23;;;0.55;;
60088;SDS011;45961;53.574;55.878;2023-05-07T09:11:36;1.38;;;0.88;;
60088;SDS011;45961;53.574;55.878;2023-05-07T09:12:39;3.20;;;0.77;;
60088;SDS011;45961;53.574;55.878;2023-05-07T09:13:42;1.45;;;1.35;;
60088;SDS011;45961;53.574;55.878;2023-05-07T09:14:43;2.40;;;2.30;;
60088;SDS011;45961;53.574;55.878;2023-05-07T09:15:46;2.17;;;2.03;;
60088;SDS011;45961;53.574;55.878;2023-05-07T09:16:48;2.50;;;2.30;;
60088;SDS011;45961;53.574;55.878;2023-05-07T09:17:50;1.95;;;1.80;;
60088;SDS011;45961;53.574;55.878;2023-05-07T09:18:51;2.40;;;2.20;;
60088;SDS011;45961;53.574;55.878;2023-05-07T09:19:54;2.38;;;2.13;;
60088;SDS011;45961;53.574;55.878;2023-05-07T09:20:55;2.20;;;2.00;;
60088;SDS011;45961;53.574;55.878;2023-05-07T09:22:03;3.53;;;3.20;;
60088;SDS011;45961;53.574;55.878;2023-05-07T09:23:15;46.15;;;41.40;;
60088;SDS011;45961;53.574;55.878;2023-05-07T09:24:18;174.20;;;147.98;;
60088;SDS011;45961;53.574;55.878;2023-05-07T09:25:27;47.08;;;38.33;;
60088;SDS011;45961;53.574;55.878;2023-05-07T09:26:30;112.70;;;90.32;;
60088;SDS011;45961;53.574;55.878;2023-05-07T09:27:33;210.57;;;166.35;;
60088;SDS011;45961;53.574;55.878;2023-05-07T09:28:35;39.10;;;28.60;;
60088;SDS011;45961;53.574;55.878;2023-05-07T09:29:38;32.92;;;27.65;;
60088;SDS011;45961;53.574;55.878;2023-05-07T09:30:40;16.90;;;15.23;;
60088;SDS011;45961;53.574;55.878;2023-05-07T09:31:47;2.88;;;2.67;;
60088;SDS011;45961;53.574;55.878;2023-05-07T09:32:50;1.80;;;1.70;;
60088;SDS011;45961;53.574;55.878;2023-05-07T09:33:54;1.83;;;1.50;;
60088;SDS011;45961;53.574;55.878;2023-05-07T09:35:00;1.90;;;1.75;;
60088;SDS011;45961;53.574;55.878;2023-05-07T09:36:05;0.90;;;0.77;;
60088;SDS011;45961;53.574;55.878;2023-05-07T09:37:08;9.57;;;8.77;;
60088;SDS011;45961;53.574;55.878;2023-05-07T09:38:12;5.65;;;5.18;;
60088;SDS011;45961;53.574;55.878;2023-05-07T09:39:13;14.35;;;7.85;;
60088;SDS011;45961;53.574;55.878;2023-05-07T09:40:24;7.13;;;6.32;;
60088;SDS011;45961;53.574;55.878;2023-05-07T09:41:30;4.80;;;3.65;;
60088;SDS011;45961;53.574;55.878;2023-05-07T09:42:42;3.10;;;2.83;;
60088;SDS011;45961;53.574;55.878;2023-05-07T09:43:43;6.00;;;5.45;;
60088;SDS011;45961;53.574;55.878;2023-05-07T09:44:47;1.90;;;1.80;;
60088;SDS011;45961;53.574;55.878;2023-05-07T09:45:52;3.40;;;3.10;;
60088;SDS011;45961;53.574;55.878;2023-05-07T09:46:57;3.33;;;3.05;;
60088;SDS011;45961;53.574;55.878;2023-05-07T09:48:07;2.60;;;2.20;;
60088;SDS011;45961;53.574;55.878;2023-05-07T09:49:13;2.35;;;1.85;;
60088;SDS011;45961;53.574;55.878;2023-05-07T09:50:28;2.95;;;2.22;;
60088;SDS011;45961;53.574;55.878;2023-05-07T09:51:38;4.13;;;3.80;;
60088;SDS011;45961;53.574;55.878;2023-05-07T09:52:46;34.00;;;30.63;;
60088;SDS011;45961;53.574;55.878;2023-05-07T09:53:49;10.00;;;8.98;;
60088;SDS011;45961;53.574;55.878;2023-05-07T09:54:55;5.82;;;5.10;;
60088;SDS011;45961;53.574;55.878;2023-05-07T09:56:02;9.85;;;8.85;;
60088;SDS011;45961;53.574;55.878;2023-05-07T09:57:04;12.07;;;10.85;;
60088;SDS011;45961;53.574;55.878;2023-05-07T09:58:07;7.53;;;6.82;;
60088;SDS011;45961;53.574;55.878;2023-05-07T09:59:12;6.75;;;6.00;;
60088;SDS011;45961;53.574;55.878;2023-05-07T10:00:15;5.72;;;5.13;;
60088;SDS011;45961;53.574;55.878;2023-05-07T10:01:22;6.05;;;5.40;;
60088;SDS011;45961;53.574;55.878;2023-05-07T10:02:28;4.97;;;4.57;;
60088;SDS011;45961;53.574;55.878;2023-05-07T10:03:31;1.48;;;1.38;;
60088;SDS011;45961;53.574;55.878;2023-05-07T10:04:39;2.92;;;2.58;;
60088;SDS011;45961;53.574;55.878;2023-05-07T10:05:41;2.60;;;1.75;;
60088;SDS011;45961;53.574;55.878;2023-05-07T10:06:45;3.28;;;2.55;;
60088;SDS011;45961;53.574;55.878;2023-05-07T10:07:48;4.05;;;2.47;;
60088;SDS011;45961;53.574;55.878;2023-05-07T10:08:49;2.35;;;1.52;;
60088;SDS011;45961;53.574;55.878;2023-05-07T10:09:52;2.97;;;2.67;;
60088;SDS011;45961;53.574;55.878;2023-05-07T10:11:03;4.40;;;4.00;;
60088;SDS011;45961;53.574;55.878;2023-05-07T10:12:05;5.97;;;5.47;;
60088;SDS011;45961;53.574;55.878;2023-05-07T10:13:08;4.07;;;3.78;;
60088;SDS011;45961;53.574;55.878;2023-05-07T10:14:13;4.15;;;3.83;;
60088;SDS011;45961;53.574;55.878;2023-05-07T10:15:16;69.65;;;56.00;;
60088;SDS011;45961;53.574;55.878;2023-05-07T10:16:21;9.25;;;5.72;;
60088;SDS011;45961;53.574;55.878;2023-05-07T10:17:24;5.55;;;4.97;;
60088;SDS011;45961;53.574;55.878;2023-05-07T10:18:26;4.00;;;3.70;;
60088;SDS011;45961;53.574;55.878;2023-05-07T10:19:34;4.82;;;4.43;;
60088;SDS011;45961;53.574;55.878;2023-05-07T10:20:37;3.42;;;3.08;;
60088;SDS011;45961;53.574;55.878;2023-05-07T10:21:44;2.60;;;2.30;;
60088;SDS011;45961;53.574;55.878;2023-05-07T10:23:01;2.13;;;1.55;;
60088;SDS011;45961;53.574;55.878;2023-05-07T10:24:13;3.33;;;2.58;;
60088;SDS011;45961;53.574;55.878;2023-05-07T10:25:30;5.35;;;4.88;;
60088;SDS011;45961;53.574;55.878;2023-05-07T10:26:38;2.85;;;2.55;;
60088;SDS011;45961;53.574;55.878;2023-05-07T10:27:42;2.00;;;1.70;;
60088;SDS011;45961;53.574;55.878;2023-05-07T10:28:46;5.55;;;3.20;;
60088;SDS011;45961;53.574;55.878;2023-05-07T10:31:14;11.00;;;6.22;;
60088;SDS011;45961;53.574;55.878;2023-05-07T10:33:38;10.27;;;5.50;;
60088;SDS011;45961;53.574;55.878;2023-05-07T10:34:41;6.50;;;3.20;;
60088;SDS011;45961;53.574;55.878;2023-05-07T10:35:46;2.67;;;2.20;;
60088;SDS011;45961;53.574;55.878;2023-05-07T10:36:49;7.43;;;4.22;;
60088;SDS011;45961;53.574;55.878;2023-05-07T10:37:53;10.23;;;6.05;;
60088;SDS011;45961;53.574;55.878;2023-05-07T10:38:56;7.72;;;4.65;;
60088;SDS011;45961;53.574;55.878;2023-05-07T10:39:59;3.90;;;2.95;;
60088;SDS011;45961;53.574;55.878;2023-05-07T10:41:05;3.40;;;3.10;;
60088;SDS011;45961;53.574;55.878;2023-05-07T10:42:12;5.10;;;4.40;;
60088;SDS011;45961;53.574;55.878;2023-05-07T10:43:18;2.75;;;2.55;;
60088;SDS011;45961;53.574;55.878;2023-05-07T10:44:28;3.03;;;2.70;;
60088;SDS011;45961;53.574;55.878;2023-05-07T10:45:33;2.00;;;1.80;;
60088;SDS011;45961;53.574;55.878;2023-05-07T10:46:36;1.52;;;1.42;;
60088;SDS011;45961;53.574;55.878;2023-05-07T10:49:10;2.08;;;1.23;;
60088;SDS011;45961;53.574;55.878;2023-05-07T10:50:25;1.75;;;1.48;;
60088;SDS011;45961;53.574;55.878;2023-05-07T10:51:32;1.75;;;1.50;;
60088;SDS011;45961;53.574;55.878;2023-05-07T10:52:45;2.40;;;1.42;;
60088;SDS011;45961;53.574;55.878;2023-05-07T10:54:24;2.97;;;1.90;;
60088;SDS011;45961;53.574;55.878;2023-05-07T10:55:39;1.90;;;1.70;;
60088;SDS011;45961;53.574;55.878;2023-05-07T10:56:46;1.77;;;1.35;;
60088;SDS011;45961;53.574;55.878;2023-05-07T10:57:53;1.10;;;1.00;;
60088;SDS011;45961;53.574;55.878;2023-05-07T11:03:05;3.08;;;1.92;;
60088;SDS011;45961;53.574;55.878;2023-05-07T11:04:14;5.18;;;1.60;;
60088;SDS011;45961;53.574;55.878;2023-05-07T11:05:40;3.50;;;1.55;;
60088;SDS011;45961;53.574;55.878;2023-05-07T11:08:11;1.30;;;1.20;;
60088;SDS011;45961;53.574;55.878;2023-05-07T11:10:57;2.08;;;1.13;;
60088;SDS011;45961;53.574;55.878;2023-05-07T11:12:07;1.02;;;0.93;;
60088;SDS011;45961;53.574;55.878;2023-05-07T11:13:43;1.88;;;1.40;;
60088;SDS011;45961;53.574;55.878;2023-05-07T11:14:52;1.10;;;1.00;;
60088;SDS011;45961;53.574;55.878;2023-05-07T11:15:59;1.13;;;1.00;;
60088;SDS011;45961;53.574;55.878;2023-05-07T11:17:11;1.90;;;1.30;;
60088;SDS011;45961;53.574;55.878;2023-05-07T11:18:16;1.25;;;1.10;;
60088;SDS011;45961;53.574;55.878;2023-05-07T11:19:47;1.30;;;1.20;;
60088;SDS011;45961;53.574;55.878;2023-05-07T11:21:20;1.92;;;1.00;;
60088;SDS011;45961;53.574;55.878;2023-05-07T11:22:40;2.65;;;0.90;;
60088;SDS011;45961;53.574;55.878;2023-05-07T11:24:55;2.63;;;1.52;;
60088;SDS011;45961;53.574;55.878;2023-05-07T11:27:01;2.28;;;1.48;;
60088;SDS011;45961;53.574;55.878;2023-05-07T11:28:05;4.45;;;1.80;;
60088;SDS011;45961;53.574;55.878;2023-05-07T11:29:15;5.55;;;3.13;;
60088;SDS011;45961;53.574;55.878;2023-05-07T11:30:18;4.20;;;2.80;;
60088;SDS011;45961;53.574;55.878;2023-05-07T11:31:20;2.58;;;1.80;;
60088;SDS011;45961;53.574;55.878;2023-05-07T11:32:24;1.92;;;1.45;;
60088;SDS011;45961;53.574;55.878;2023-05-07T11:33:28;2.92;;;2.33;;
60088;SDS011;45961;53.574;55.878;2023-05-07T11:34:31;4.65;;;2.75;;
60088;SDS011;45961;53.574;55.878;2023-05-07T11:35:33;3.33;;;2.80;;
60088;SDS011;45961;53.574;55.878;2023-05-07T11:36:41;1.75;;;1.65;;
60088;SDS011;45961;53.574;55.878;2023-05-07T11:37:49;2.08;;;1.73;;
60088;SDS011;45961;53.574;55.878;2023-05-07T11:38:59;2.15;;;1.67;;
60088;SDS011;45961;53.574;55.878;2023-05-07T11:41:05;4.13;;;1.80;;
60088;SDS011;45961;53.574;55.878;2023-05-07T11:42:24;2.67;;;1.73;;
60088;SDS011;45961;53.574;55.878;2023-05-07T11:43:31;2.75;;;2.25;;
60088;SDS011;45961;53.574;55.878;2023-05-07T11:44:45;3.67;;;2.10;;
60088;SDS011;45961;53.574;55.878;2023-05-07T11:45:47;3.00;;;2.70;;
60088;SDS011;45961;53.574;55.878;2023-05-07T11:46:49;3.47;;;2.72;;
60088;SDS011;45961;53.574;55.878;2023-05-07T11:47:54;3.35;;;2.22;;
60088;SDS011;45961;53.574;55.878;2023-05-07T11:49:05;2.72;;;1.70;;
60088;SDS011;45961;53.574;55.878;2023-05-07T11:50:07;1.92;;;1.75;;
60088;SDS011;45961;53.574;55.878;2023-05-07T11:51:09;1.92;;;1.60;;
60088;SDS011;45961;53.574;55.878;2023-05-07T11:52:12;1.50;;;1.40;;
60088;SDS011;45961;53.574;55.878;2023-05-07T11:53:16;2.38;;;1.52;;
60088;SDS011;45961;53.574;55.878;2023-05-07T11:55:23;3.28;;;2.35;;
60088;SDS011;45961;53.574;55.878;2023-05-07T11:56:26;2.67;;;2.15;;
60088;SDS011;45961;53.574;55.878;2023-05-07T11:57:28;2.45;;;2.25;;
60088;SDS011;45961;53.574;55.878;2023-05-07T11:58:30;2.92;;;2.30;;
60088;SDS011;45961;53.574;55.878;2023-05-07T11:59:39;1.60;;;1.50;;
60088;SDS011;45961;53.574;55.878;2023-05-07T12:00:47;1.65;;;1.35;;
60088;SDS011;45961;53.574;55.878;2023-05-07T12:01:52;2.03;;;1.70;;
60088;SDS011;45961;53.574;55.878;2023-05-07T12:03:02;2.95;;;1.70;;
60088;SDS011;45961;53.574;55.878;2023-05-07T12:04:05;1.90;;;1.55;;
60088;SDS011;45961;53.574;55.878;2023-05-07T12:05:06;1.40;;;1.25;;
60088;SDS011;45961;53.574;55.878;2023-05-07T12:06:07;2.22;;;1.70;;
60088;SDS011;45961;53.574;55.878;2023-05-07T12:07:12;2.78;;;1.65;;
60088;SDS011;45961;53.574;55.878;2023-05-07T12:08:17;4.38;;;2.28;;
60088;SDS011;45961;53.574;55.878;2023-05-07T12:09:19;2.38;;;2.17;;
60088;SDS011;45961;53.574;55.878;2023-05-07T12:10:21;5.38;;;2.30;;
60088;SDS011;45961;53.574;55.878;2023-05-07T12:11:25;2.55;;;2.20;;
60088;SDS011;45961;53.574;55.878;2023-05-07T12:13:27;5.15;;;2.75;;
60088;SDS011;45961;53.574;55.878;2023-05-07T12:14:28;3.80;;;2.60;;
60088;SDS011;45961;53.574;55.878;2023-05-07T12:16:30;5.22;;;2.40;;
60088;SDS011;45961;53.574;55.878;2023-05-07T12:17:32;3.22;;;2.60;;
60088;SDS011;45961;53.574;55.878;2023-05-07T12:18:34;4.93;;;3.20;;
60088;SDS011;45961;53.574;55.878;2023-05-07T12:19:38;5.15;;;2.55;;
60088;SDS011;45961;53.574;55.878;2023-05-07T12:20:41;4.72;;;3.20;;
60088;SDS011;45961;53.574;55.878;2023-05-07T12:21:46;5.50;;;4.07;;
60088;SDS011;45961;53.574;55.878;2023-05-07T12:22:47;6.75;;;4.00;;
60088;SDS011;45961;53.574;55.878;2023-05-07T12:23:52;4.90;;;3.30;;
60088;SDS011;45961;53.574;55.878;2023-05-07T12:24:57;4.80;;;3.33;;
60088;SDS011;45961;53.574;55.878;2023-05-07T12:25:59;4.32;;;3.10;;
60088;SDS011;45961;53.574;55.878;2023-05-07T12:27:00;5.82;;;5.10;;
60088;SDS011;45961;53.574;55.878;2023-05-07T12:28:02;7.15;;;4.93;;
60088;SDS011;45961;53.574;55.878;2023-05-07T12:29:05;10.40;;;7.03;;
60088;SDS011;45961;53.574;55.878;2023-05-07T12:31:11;16.60;;;10.55;;
60088;SDS011;45961;53.574;55.878;2023-05-07T12:32:15;19.98;;;14.35;;
60088;SDS011;45961;53.574;55.878;2023-05-07T12:33:19;20.70;;;14.75;;
60088;SDS011;45961;53.574;55.878;2023-05-07T12:34:25;14.80;;;10.40;;
60088;SDS011;45961;53.574;55.878;2023-05-07T12:35:32;17.92;;;13.48;;
60088;SDS011;45961;53.574;55.878;2023-05-07T12:36:40;15.70;;;11.50;;
60088;SDS011;45961;53.574;55.878;2023-05-07T12:37:43;13.85;;;10.43;;
60088;SDS011;45961;53.574;55.878;2023-05-07T12:38:45;13.35;;;9.82;;
60088;SDS011;45961;53.574;55.878;2023-05-07T12:40:06;4.35;;;3.80;;
60088;SDS011;45961;53.574;55.878;2023-05-07T12:41:09;7.30;;;5.78;;
60088;SDS011;45961;53.574;55.878;2023-05-07T12:42:16;6.30;;;4.28;;
60088;SDS011;45961;53.574;55.878;2023-05-07T12:43:21;5.43;;;4.57;;
60088;SDS011;45961;53.574;55.878;2023-05-07T12:44:28;15.90;;;10.30;;
60088;SDS011;45961;53.574;55.878;2023-05-07T12:45:31;12.57;;;7.03;;
60088;SDS011;45961;53.574;55.878;2023-05-07T12:46:32;5.05;;;3.92;;
60088;SDS011;45961;53.574;55.878;2023-05-07T12:47:34;9.23;;;6.60;;
60088;SDS011;45961;53.574;55.878;2023-05-07T12:48:38;11.88;;;7.70;;
60088;SDS011;45961;53.574;55.878;2023-05-07T12:49:45;4.75;;;3.65;;
60088;SDS011;45961;53.574;55.878;2023-05-07T12:50:50;3.85;;;3.10;;
60088;SDS011;45961;53.574;55.878;2023-05-07T12:51:51;7.93;;;7.10;;
60088;SDS011;45961;53.574;55.878;2023-05-07T12:52:54;6.40;;;4.13;;
60088;SDS011;45961;53.574;55.878;2023-05-07T12:53:55;4.10;;;3.20;;
60088;SDS011;45961;53.574;55.878;2023-05-07T12:54:57;2.83;;;2.42;;
60088;SDS011;45961;53.574;55.878;2023-05-07T12:56:07;4.35;;;3.25;;
60088;SDS011;45961;53.574;55.878;2023-05-07T12:57:09;4.30;;;3.08;;
60088;SDS011;45961;53.574;55.878;2023-05-07T12:58:15;3.63;;;2.50;;
60088;SDS011;45961;53.574;55.878;2023-05-07T12:59:30;6.05;;;5.50;;
60088;SDS011;45961;53.574;55.878;2023-05-07T13:00:40;5.10;;;4.30;;
60088;SDS011;45961;53.574;55.878;2023-05-07T13:01:43;3.53;;;3.05;;
60088;SDS011;45961;53.574;55.878;2023-05-07T13:02:46;3.78;;;3.33;;
60088;SDS011;45961;53.574;55.878;2023-05-07T13:03:48;6.25;;;4.25;;
60088;SDS011;45961;53.574;55.878;2023-05-07T13:04:50;5.53;;;5.00;;
60088;SDS011;45961;53.574;55.878;2023-05-07T13:05:52;5.70;;;3.60;;
60088;SDS011;45961;53.574;55.878;2023-05-07T13:06:53;4.18;;;3.38;;
60088;SDS011;45961;53.574;55.878;2023-05-07T13:08:56;4.25;;;3.25;;
60088;SDS011;45961;53.574;55.878;2023-05-07T13:10:59;3.05;;;2.65;;
60088;SDS011;45961;53.574;55.878;2023-05-07T13:12:04;2.83;;;2.45;;
60088;SDS011;45961;53.574;55.878;2023-05-07T13:13:05;3.08;;;2.25;;
60088;SDS011;45961;53.574;55.878;2023-05-07T13:14:06;5.43;;;4.60;;
60088;SDS011;45961;53.574;55.878;2023-05-07T13:15:07;3.75;;;3.45;;
60088;SDS011;45961;53.574;55.878;2023-05-07T13:16:09;4.80;;;4.25;;
60088;SDS011;45961;53.574;55.878;2023-05-07T13:17:11;20.02;;;18.20;;
60088;SDS011;45961;53.574;55.878;2023-05-07T13:18:13;24.30;;;22.13;;
60088;SDS011;45961;53.574;55.878;2023-05-07T13:19:14;14.05;;;6.72;;
60088;SDS011;45961;53.574;55.878;2023-05-07T13:20:15;7.47;;;6.75;;
60088;SDS011;45961;53.574;55.878;2023-05-07T13:21:16;4.00;;;2.90;;
60088;SDS011;45961;53.574;55.878;2023-05-07T13:22:17;4.97;;;3.28;;
60088;SDS011;45961;53.574;55.878;2023-05-07T13:23:18;4.55;;;3.13;;
60088;SDS011;45961;53.574;55.878;2023-05-07T13:24:19;5.50;;;3.80;;
60088;SDS011;45961;53.574;55.878;2023-05-07T13:25:20;4.22;;;3.38;;
60088;SDS011;45961;53.574;55.878;2023-05-07T13:26:21;3.35;;;3.05;;
60088;SDS011;45961;53.574;55.878;2023-05-07T13:27:22;4.13;;;2.90;;
60088;SDS011;45961;53.574;55.878;2023-05-07T13:28:24;6.63;;;3.25;;
60088;SDS011;45961;53.574;55.878;2023-05-07T13:29:26;6.90;;;5.32;;
60088;SDS011;45961;53.574;55.878;2023-05-07T13:30:30;7.72;;;7.13;;
60088;SDS011;45961;53.574;55.878;2023-05-07T13:31:31;6.40;;;3.72;;
60088;SDS011;45961;53.574;55.878;2023-05-07T13:32:33;4.85;;;4.43;;
60088;SDS011;45961;53.574;55.878;2023-05-07T13:33:34;4.05;;;3.42;;
60088;SDS011;45961;53.574;55.878;2023-05-07T13:34:35;2.90;;;2.60;;
60088;SDS011;45961;53.574;55.878;2023-05-07T13:35:37;4.85;;;2.85;;
60088;SDS011;45961;53.574;55.878;2023-05-07T13:36:38;7.38;;;5.10;;
60088;SDS011;45961;53.574;55.878;2023-05-07T13:37:40;6.10;;;3.70;;
60088;SDS011;45961;53.574;55.878;2023-05-07T13:38:41;5.10;;;4.07;;
60088;SDS011;45961;53.574;55.878;2023-05-07T13:39:42;8.73;;;4.90;;
60088;SDS011;45961;53.574;55.878;2023-05-07T13:40:43;9.02;;;5.97;;
60088;SDS011;45961;53.574;55.878;2023-05-07T13:41:44;4.20;;;3.10;;
60088;SDS011;45961;53.574;55.878;2023-05-07T13:42:45;13.60;;;8.45;;
60088;SDS011;45961;53.574;55.878;2023-05-07T13:43:46;4.85;;;2.50;;
60088;SDS011;45961;53.574;55.878;2023-05-07T13:44:47;3.10;;;2.72;;
60088;SDS011;45961;53.574;55.878;2023-05-07T13:45:48;4.00;;;3.08;;
60088;SDS011;45961;53.574;55.878;2023-05-07T13:47:50;3.78;;;2.95;;
60088;SDS011;45961;53.574;55.878;2023-05-07T13:48:52;3.95;;;2.42;;
60088;SDS011;45961;53.574;55.878;2023-05-07T13:49:53;14.48;;;9.30;;
60088;SDS011;45961;53.574;55.878;2023-05-07T13:50:54;8.13;;;6.25;;
60088;SDS011;45961;53.574;55.878;2023-05-07T13:51:55;11.48;;;7.63;;
60088;SDS011;45961;53.574;55.878;2023-05-07T13:52:56;6.70;;;3.38;;
60088;SDS011;45961;53.574;55.878;2023-05-07T13:53:57;3.28;;;2.95;;
60088;SDS011;45961;53.574;55.878;2023-05-07T13:54:59;5.90;;;2.72;;
60088;SDS011;45961;53.574;55.878;2023-05-07T13:56:01;9.00;;;4.85;;
60088;SDS011;45961;53.574;55.878;2023-05-07T13:57:04;25.75;;;15.82;;
60088;SDS011;45961;53.574;55.878;2023-05-07T13:58:05;17.70;;;9.50;;
60088;SDS011;45961;53.574;55.878;2023-05-07T13:59:06;38.47;;;22.90;;
60088;SDS011;45961;53.574;55.878;2023-05-07T14:00:08;4.82;;;3.97;;
60088;SDS011;45961;53.574;55.878;2023-05-07T14:01:15;6.13;;;2.88;;
60088;SDS011;45961;53.574;55.878;2023-05-07T14:02:16;18.02;;;11.70;;
60088;SDS011;45961;53.574;55.878;2023-05-07T14:03:17;23.23;;;12.48;;
60088;SDS011;45961;53.574;55.878;2023-05-07T14:04:20;8.05;;;5.70;;
60088;SDS011;45961;53.574;55.878;2023-05-07T14:05:21;5.13;;;4.22;;
60088;SDS011;45961;53.574;55.878;2023-05-07T14:06:37;3.00;;;2.70;;
60088;SDS011;45961;53.574;55.878;2023-05-07T14:07:40;3.60;;;2.78;;
60088;SDS011;45961;53.574;55.878;2023-05-07T14:08:41;2.88;;;2.53;;
60088;SDS011;45961;53.574;55.878;2023-05-07T14:09:42;5.10;;;3.33;;
60088;SDS011;45961;53.574;55.878;2023-05-07T14:10:43;6.55;;;4.18;;
60088;SDS011;45961;53.574;55.878;2023-05-07T14:11:44;7.57;;;4.93;;
60088;SDS011;45961;53.574;55.878;2023-05-07T14:12:47;8.85;;;3.58;;
60088;SDS011;45961;53.574;55.878;2023-05-07T14:14:50;4.30;;;3.80;;
60088;SDS011;45961;53.574;55.878;2023-05-07T14:15:51;8.13;;;4.43;;
60088;SDS011;45961;53.574;55.878;2023-05-07T14:16:52;21.92;;;15.57;;
60088;SDS011;45961;53.574;55.878;2023-05-07T14:17:53;4.38;;;3.97;;
60088;SDS011;45961;53.574;55.878;2023-05-07T14:19:01;5.00;;;3.05;;
60088;SDS011;45961;53.574;55.878;2023-05-07T14:20:04;6.25;;;3.35;;
60088;SDS011;45961;53.574;55.878;2023-05-07T14:21:06;4.45;;;3.20;;
60088;SDS011;45961;53.574;55.878;2023-05-07T14:22:10;4.22;;;3.13;;
60088;SDS011;45961;53.574;55.878;2023-05-07T14:23:11;5.72;;;3.38;;
60088;SDS011;45961;53.574;55.878;2023-05-07T14:24:12;4.60;;;4.18;;
60088;SDS011;45961;53.574;55.878;2023-05-07T14:25:13;7.93;;;6.60;;
60088;SDS011;45961;53.574;55.878;2023-05-07T14:26:14;5.22;;;4.03;;
60088;SDS011;45961;53.574;55.878;2023-05-07T14:27:15;5.97;;;3.97;;
60088;SDS011;45961;53.574;55.878;2023-05-07T14:29:17;5.35;;;4.10;;
60088;SDS011;45961;53.574;55.878;2023-05-07T14:30:19;6.65;;;4.95;;
60088;SDS011;45961;53.574;55.878;2023-05-07T14:31:20;5.45;;;4.20;;
60088;SDS011;45961;53.574;55.878;2023-05-07T14:33:22;5.47;;;4.40;;
60088;SDS011;45961;53.574;55.878;2023-05-07T14:34:23;7.07;;;5.22;;
60088;SDS011;45961;53.574;55.878;2023-05-07T14:35:24;5.63;;;5.03;;
60088;SDS011;45961;53.574;55.878;2023-05-07T14:36:25;19.48;;;17.38;;
60088;SDS011;45961;53.574;55.878;2023-05-07T14:37:27;77.03;;;68.43;;
60088;SDS011;45961;53.574;55.878;2023-05-07T14:38:28;81.53;;;62.85;;
60088;SDS011;45961;53.574;55.878;2023-05-07T14:39:30;201.63;;;167.77;;
60088;SDS011;45961;53.574;55.878;2023-05-07T14:40:31;136.70;;;112.03;;
60088;SDS011;45961;53.574;55.878;2023-05-07T14:41:32;86.63;;;72.38;;
60088;SDS011;45961;53.574;55.878;2023-05-07T14:42:34;48.42;;;40.38;;
60088;SDS011;45961;53.574;55.878;2023-05-07T14:43:35;20.90;;;18.67;;
60088;SDS011;45961;53.574;55.878;2023-05-07T14:44:41;9.45;;;7.70;;
60088;SDS011;45961;53.574;55.878;2023-05-07T14:45:42;8.23;;;6.70;;
60088;SDS011;45961;53.574;55.878;2023-05-07T14:46:44;8.50;;;5.97;;
60088;SDS011;45961;53.574;55.878;2023-05-07T14:47:44;8.32;;;7.47;;
60088;SDS011;45961;53.574;55.878;2023-05-07T14:48:46;16.15;;;14.63;;
60088;SDS011;45961;53.574;55.878;2023-05-07T14:49:47;15.93;;;13.82;;
60088;SDS011;45961;53.574;55.878;2023-05-07T14:50:48;16.45;;;12.88;;
60088;SDS011;45961;53.574;55.878;2023-05-07T14:51:49;13.68;;;11.18;;
60088;SDS011;45961;53.574;55.878;2023-05-07T14:52:53;8.15;;;6.82;;
60088;SDS011;45961;53.574;55.878;2023-05-07T14:53:58;7.78;;;4.90;;
60088;SDS011;45961;53.574;55.878;2023-05-07T14:55:02;11.98;;;10.77;;
60088;SDS011;45961;53.574;55.878;2023-05-07T14:56:04;10.40;;;9.15;;
60088;SDS011;45961;53.574;55.878;2023-05-07T14:57:07;10.77;;;8.20;;
60088;SDS011;45961;53.574;55.878;2023-05-07T14:58:10;7.22;;;5.90;;
60088;SDS011;45961;53.574;55.878;2023-05-07T15:00:12;5.53;;;4.97;;
60088;SDS011;45961;53.574;55.878;2023-05-07T15:01:16;6.65;;;4.85;;
60088;SDS011;45961;53.574;55.878;2023-05-07T15:02:17;5.93;;;4.45;;
60088;SDS011;45961;53.574;55.878;2023-05-07T15:03:18;9.20;;;6.03;;
60088;SDS011;45961;53.574;55.878;2023-05-07T15:04:19;7.72;;;6.13;;
60088;SDS011;45961;53.574;55.878;2023-05-07T15:05:20;6.97;;;5.57;;
60088;SDS011;45961;53.574;55.878;2023-05-07T15:06:21;11.25;;;6.28;;
60088;SDS011;45961;53.574;55.878;2023-05-07T15:07:23;7.30;;;6.55;;
60088;SDS011;45961;53.574;55.878;2023-05-07T15:08:24;8.00;;;6.35;;
60088;SDS011;45961;53.574;55.878;2023-05-07T15:09:25;8.43;;;6.13;;
60088;SDS011;45961;53.574;55.878;2023-05-07T15:10:26;9.73;;;6.63;;
60088;SDS011;45961;53.574;55.878;2023-05-07T15:11:27;9.45;;;6.43;;
60088;SDS011;45961;53.574;55.878;2023-05-07T15:12:28;8.35;;;7.03;;
60088;SDS011;45961;53.574;55.878;2023-05-07T15:13:29;9.77;;;6.68;;
60088;SDS011;45961;53.574;55.878;2023-05-07T15:14:30;9.18;;;6.63;;
60088;SDS011;45961;53.574;55.878;2023-05-07T15:15:30;9.93;;;6.35;;
60088;SDS011;45961;53.574;55.878;2023-05-07T15:16:32;12.00;;;8.73;;
60088;SDS011;45961;53.574;55.878;2023-05-07T15:17:34;15.10;;;9.98;;
60088;SDS011;45961;53.574;55.878;2023-05-07T15:19:39;13.15;;;7.68;;
60088;SDS011;45961;53.574;55.878;2023-05-07T15:20:40;10.50;;;7.90;;
60088;SDS011;45961;53.574;55.878;2023-05-07T15:21:42;17.08;;;7.75;;
60088;SDS011;45961;53.574;55.878;2023-05-07T15:22:43;10.43;;;6.85;;
60088;SDS011;45961;53.574;55.878;2023-05-07T15:23:44;9.00;;;7.28;;
60088;SDS011;45961;53.574;55.878;2023-05-07T15:25:46;8.23;;;7.35;;
60088;SDS011;45961;53.574;55.878;2023-05-07T15:26:47;10.13;;;7.78;;
60088;SDS011;45961;53.574;55.878;2023-05-07T15:27:48;9.52;;;7.72;;
60088;SDS011;45961;53.574;55.878;2023-05-07T15:28:49;12.68;;;8.38;;
60088;SDS011;45961;53.574;55.878;2023-05-07T15:29:51;11.48;;;7.50;;
60088;SDS011;45961;53.574;55.878;2023-05-07T15:30:52;9.35;;;7.85;;
60088;SDS011;45961;53.574;55.878;2023-05-07T15:31:53;10.80;;;8.38;;
60088;SDS011;45961;53.574;55.878;2023-05-07T15:32:54;11.27;;;8.00;;
60088;SDS011;45961;53.574;55.878;2023-05-07T15:33:56;22.27;;;7.88;;
60088;SDS011;45961;53.574;55.878;2023-05-07T15:34:57;10.43;;;8.63;;
60088;SDS011;45961;53.574;55.878;2023-05-07T15:35:58;13.75;;;8.90;;
60088;SDS011;45961;53.574;55.878;2023-05-07T15:36:59;11.05;;;8.75;;
60088;SDS011;45961;53.574;55.878;2023-05-07T15:38:00;11.00;;;8.73;;
60088;SDS011;45961;53.574;55.878;2023-05-07T15:39:03;17.05;;;10.05;;
60088;SDS011;45961;53.574;55.878;2023-05-07T15:40:05;15.25;;;9.82;;
60088;SDS011;45961;53.574;55.878;2023-05-07T15:41:09;11.35;;;9.02;;
60088;SDS011;45961;53.574;55.878;2023-05-07T15:42:10;13.18;;;8.77;;
60088;SDS011;45961;53.574;55.878;2023-05-07T15:43:11;13.48;;;9.88;;
60088;SDS011;45961;53.574;55.878;2023-05-07T15:44:12;14.00;;;9.05;;
60088;SDS011;45961;53.574;55.878;2023-05-07T15:45:17;14.48;;;10.05;;
60088;SDS011;45961;53.574;55.878;2023-05-07T15:46:22;18.35;;;11.35;;